Stations météo

Publicité
Metz-Frescaty, France (7090): Température de l'air & dewpoint: 17.09.2018 15:00:00 - 23.09.2018 15:00:00 (CEST)Metz-Frescaty, France (7090): Vitesse du vent & gusts: 17.09.2018 15:00:00 - 23.09.2018 15:00:00 (CEST)Metz-Frescaty, France (7090): Direction du vent: 17.09.2018 15:00:00 - 23.09.2018 15:00:00 (CEST)Metz-Frescaty, France (7090): Quantités de précipitations: 17.09.2018 15:00:00 - 23.09.2018 15:00:00 (CEST)
Date & Time tt [°C] td [°C] ff [km/h] ff [knt] fx [km/h] fx [knt] dd rr [mm]
23.09.2018 15:00:00 20,0 18,1 26 14 59 32 SW 0,0
23.09.2018 14:00:00 21,1 18,3 26 14 55 30 WSW -
23.09.2018 13:00:00 20,8 18,4 24 13 54 29 WSW 0,0
23.09.2018 12:00:00 19,9 18,0 22 12 50 27 SW 0,0
23.09.2018 11:00:00 19,2 17,9 21 11 46 25 SW 0,0
23.09.2018 10:00:00 18,4 17,6 21 11 37 20 SW 0,0
23.09.2018 09:00:00 17,6 17,0 15 8 37 20 SSW 0,4
23.09.2018 08:00:00 17,7 16,6 21 11 46 25 SW -
23.09.2018 07:00:00 18,3 15,5 18 10 41 22 WSW 0,0
23.09.2018 06:00:00 17,5 14,6 18 10 41 22 SW 0,0
23.09.2018 05:00:00 17,0 13,9 16 9 42 23 SW 0,0
23.09.2018 04:00:00 16,2 12,9 15 8 35 19 SW 0,0
23.09.2018 03:00:00 14,3 12,2 9 5 21 11 SSW 0,0
23.09.2018 02:00:00 13,6 11,8 5 3 22 12 SSW -
23.09.2018 01:00:00 12,7 11,3 0 0 5 3 N 0,0
23.09.2018 00:00:00 12,7 11,3 0 0 9 5 N 0,2
22.09.2018 23:00:00 12,5 11,6 4 2 9 5 W 0,0
22.09.2018 22:00:00 12,8 11,5 8 4 11 6 E 0,2
22.09.2018 21:00:00 13,1 10,5 2 1 8 4 NNW 0,2
22.09.2018 20:00:00 13,4 11,1 2 1 8 4 W -
22.09.2018 19:00:00 16,2 6,0 5 3 18 10 W 0,0
22.09.2018 18:00:00 16,9 5,2 13 7 26 14 W 0,0
22.09.2018 17:00:00 17,3 4,9 13 7 29 16 W 0,0
22.09.2018 16:00:00 18,2 5,1 11 6 29 16 SW 0,0
22.09.2018 15:00:00 18,4 5,2 15 8 29 16 WSW 0,0
22.09.2018 14:00:00 17,3 6,2 15 8 26 14 SW -
22.09.2018 13:00:00 16,5 6,9 15 8 28 15 SW 0,0
22.09.2018 12:00:00 15,7 6,7 13 7 26 14 SW 0,0
22.09.2018 11:00:00 14,1 7,6 8 4 11 6 S 0,0
22.09.2018 10:00:00 12,4 6,9 8 4 11 6 S 0,0
22.09.2018 09:00:00 10,2 7,3 8 4 11 6 SSE 0,0
22.09.2018 08:00:00 7,9 6,0 5 3 9 5 SE -
22.09.2018 07:00:00 7,8 5,6 8 4 9 5 SE 0,0
22.09.2018 06:00:00 9,7 5,5 4 2 11 6 S 0,0
22.09.2018 05:00:00 11,1 5,2 5 3 13 7 W 0,0
22.09.2018 04:00:00 11,4 5,0 4 2 18 10 WSW 0,0
22.09.2018 03:00:00 11,8 5,0 11 6 26 14 W 0,0
22.09.2018 02:00:00 11,9 4,8 8 4 18 10 W -
22.09.2018 01:00:00 12,4 4,6 9 5 16 9 W 0,0
22.09.2018 00:00:00 12,9 4,6 9 5 22 12 W 0,0
21.09.2018 23:00:00 12,9 4,6 8 4 18 10 WSW 0,0
21.09.2018 22:00:00 13,0 5,9 9 5 18 10 W 0,0
21.09.2018 21:00:00 13,5 5,9 8 4 13 7 WSW 0,0
21.09.2018 20:00:00 15,0 5,8 11 6 21 11 W -
21.09.2018 19:00:00 16,3 5,8 13 7 29 16 W 0,0
21.09.2018 18:00:00 16,6 9,0 15 8 29 16 WNW 0,0
21.09.2018 17:00:00 16,0 11,6 16 9 34 18 W 0,0
21.09.2018 16:00:00 15,4 12,0 16 9 39 21 W 0,0
21.09.2018 15:00:00 13,3 11,7 13 7 31 17 W 0,2
21.09.2018 14:00:00 13,7 12,3 18 10 52 28 W -
21.09.2018 13:00:00 18,3 15,2 18 10 41 22 WSW 0,4
21.09.2018 12:00:00 19,7 13,8 16 9 42 23 WSW 0,2
21.09.2018 11:00:00 20,7 12,4 18 10 39 21 SW 0,0
21.09.2018 10:00:00 20,3 12,5 13 7 37 20 SW 0,0
21.09.2018 09:00:00 20,2 12,7 16 9 35 19 SW 0,0
21.09.2018 08:00:00 19,4 12,9 9 5 22 12 SW -
21.09.2018 07:00:00 16,6 12,7 5 3 11 6 SSW 0,0
21.09.2018 06:00:00 16,3 12,6 5 3 11 6 S 0,0
21.09.2018 05:00:00 14,5 13,2 2 1 9 5 SW 0,0
21.09.2018 04:00:00 14,3 13,5 2 1 8 4 WNW 0,0
21.09.2018 03:00:00 14,1 13,3 0 0 4 2 N 0,0
21.09.2018 02:00:00 14,0 13,0 0 0 4 2 N -
21.09.2018 01:00:00 14,3 12,8 2 1 5 3 S 0,0
21.09.2018 00:00:00 15,2 13,2 0 0 5 3 N 0,0
20.09.2018 23:00:00 15,5 13,2 0 0 4 2 N 0,0
20.09.2018 22:00:00 16,5 13,6 4 2 4 2 W 0,0
20.09.2018 21:00:00 17,9 13,6 4 2 4 2 WNW 0,0
20.09.2018 20:00:00 20,0 13,9 2 1 4 2 WSW -
20.09.2018 19:00:00 25,4 14,2 4 2 15 8 W 0,0
20.09.2018 18:00:00 26,6 13,3 8 4 21 11 WSW 0,0
20.09.2018 17:00:00 26,8 13,2 9 5 26 14 WSW 0,0
20.09.2018 16:00:00 26,6 13,3 11 6 29 16 SW 0,0
20.09.2018 15:00:00 26,0 12,8 11 6 28 15 WSW 0,0
20.09.2018 14:00:00 25,3 12,5 11 6 28 15 W -
20.09.2018 13:00:00 24,3 13,2 15 8 29 16 WSW 0,0
20.09.2018 12:00:00 23,7 13,6 15 8 28 15 WSW 0,0
20.09.2018 11:00:00 22,5 13,3 13 7 28 15 WSW 0,0
20.09.2018 10:00:00 19,5 14,3 5 3 8 4 SSE 0,0
20.09.2018 09:00:00 16,1 13,6 0 0 4 2 N 0,0
20.09.2018 08:00:00 11,8 11,6 0 0 4 2 N -
20.09.2018 07:00:00 11,5 11,3 0 0 2 1 N 0,0
20.09.2018 06:00:00 11,9 11,6 0 0 2 1 N 0,0
20.09.2018 05:00:00 12,4 11,8 0 0 2 1 N 0,0
20.09.2018 04:00:00 13,2 12,6 0 0 4 2 N 0,0
20.09.2018 03:00:00 14,0 13,0 2 1 4 2 W 0,0
20.09.2018 02:00:00 15,1 13,8 2 1 4 2 WNW -
20.09.2018 01:00:00 16,7 13,8 0 0 8 4 N 0,0
20.09.2018 00:00:00 19,9 14,0 5 3 15 8 WNW 0,0
19.09.2018 23:00:00 21,2 14,1 9 5 16 9 W 0,0
19.09.2018 22:00:00 21,5 14,6 9 5 15 8 W 0,0
19.09.2018 21:00:00 22,5 14,9 8 4 13 7 W 0,0
19.09.2018 20:00:00 24,4 15,1 8 4 15 8 W -
19.09.2018 19:00:00 26,5 15,5 11 6 22 12 W 0,0
19.09.2018 18:00:00 27,7 15,4 13 7 28 15 WSW 0,0
19.09.2018 17:00:00 28,3 14,9 16 9 29 16 W 0,0
19.09.2018 16:00:00 28,2 15,1 16 9 35 19 WSW 0,0
19.09.2018 15:00:00 28,3 14,9 18 10 37 20 WSW 0,0
19.09.2018 14:00:00 28,3 14,5 13 7 31 17 WSW -
19.09.2018 13:00:00 27,3 13,6 11 6 24 13 WSW 0,0
19.09.2018 12:00:00 26,0 15,1 11 6 18 10 SSE 0,0
19.09.2018 11:00:00 23,5 15,8 5 3 11 6 SSE 0,0
19.09.2018 10:00:00 20,5 15,1 5 3 9 5 SSE 0,0
19.09.2018 09:00:00 16,9 14,4 2 1 5 3 S 0,0
19.09.2018 08:00:00 13,8 13,5 0 0 4 2 N -
19.09.2018 07:00:00 13,5 13,2 0 0 4 2 N 0,0
19.09.2018 06:00:00 14,1 13,5 2 1 4 2 W 0,0
19.09.2018 05:00:00 14,2 13,2 0 0 9 5 N 0,0
19.09.2018 04:00:00 14,3 13,2 2 1 5 3 NW 0,0
19.09.2018 03:00:00 15,1 13,3 0 0 4 2 N 0,0
19.09.2018 02:00:00 16,0 13,7 4 2 5 3 WNW -
19.09.2018 01:00:00 17,3 13,8 2 1 8 4 WNW 0,0
19.09.2018 00:00:00 18,5 13,4 2 1 5 3 S 0,0
18.09.2018 23:00:00 19,8 12,5 4 2 13 7 ESE 0,0
18.09.2018 22:00:00 21,7 12,5 4 2 18 10 WNW 0,0
18.09.2018 21:00:00 23,6 12,3 11 6 16 9 W 0,0
18.09.2018 20:00:00 24,9 12,8 11 6 22 12 W -
18.09.2018 19:00:00 26,6 13,0 11 6 21 11 W 0,0
18.09.2018 18:00:00 29,7 12,2 11 6 21 11 W 0,0
18.09.2018 17:00:00 30,5 12,9 13 7 26 14 W 0,0
18.09.2018 16:00:00 30,1 14,6 15 8 29 16 WSW 0,0
18.09.2018 15:00:00 29,8 15,1 15 8 29 16 WSW 0,0
18.09.2018 14:00:00 28,3 16,2 15 8 34 18 SW -
18.09.2018 13:00:00 27,9 16,2 13 7 28 15 SW 0,0
18.09.2018 12:00:00 26,6 15,6 11 6 29 16 WSW 0,0
18.09.2018 11:00:00 24,5 14,9 9 5 18 10 SSW 0,0
18.09.2018 10:00:00 19,9 14,0 5 3 9 5 SSE 0,0
18.09.2018 09:00:00 16,5 12,5 4 2 5 3 SE 0,0
18.09.2018 08:00:00 11,6 11,0 0 0 4 2 N -
18.09.2018 07:00:00 10,3 9,8 0 0 4 2 N 0,0
18.09.2018 06:00:00 10,5 10,0 0 0 0 0 N 0,0
18.09.2018 05:00:00 11,1 10,5 0 0 2 1 N 0,0
18.09.2018 04:00:00 11,6 10,7 2 1 4 2 SE 0,0
18.09.2018 03:00:00 12,2 10,9 2 1 4 2 SSE 0,0
18.09.2018 02:00:00 12,7 11,1 0 0 4 2 N -
18.09.2018 01:00:00 13,3 11,4 0 0 4 2 N 0,0
18.09.2018 00:00:00 14,5 12,2 2 1 5 3 WNW 0,0
17.09.2018 23:00:00 15,3 12,2 4 2 8 4 NW 0,0
17.09.2018 22:00:00 16,6 12,5 4 2 8 4 NW 0,0
17.09.2018 21:00:00 18,0 13,1 4 2 5 3 WNW 0,0
17.09.2018 20:00:00 21,2 13,4 4 2 8 4 WNW -
17.09.2018 19:00:00 27,2 12,4 5 3 11 6 ESE 0,0
17.09.2018 18:00:00 28,1 10,8 8 4 16 9 SSE 0,0
17.09.2018 17:00:00 28,3 9,6 9 5 22 12 SE 0,0
17.09.2018 16:00:00 28,0 9,3 8 4 18 10 S 0,0
17.09.2018 15:00:00 27,5 10,2 4 2 18 10 SE 0,0

tt = Température de l'air
td = dewpoint
ff = Vitesse du vent
fx = gusts
dd = Direction du vent
rr = Quantités de précipitations

stations d'obs. à proximité